INFORMACIÓN METAR y TAF
METAR FOR GCLA
ADDS - METARS form results

(2214 UTC 19 September 2020)
Data provider http://aviationweather.gov/metar/data/
 
METAR text: GCLA 192200Z AUTO 33008KT 9999 SCT026 23/18 Q1020
Conditions at: GCLA (LA PALMA AIRPORT, ES) observed 2200 UTC 19 September 2020
Temperature: 23.0°C (73°F)
Dewpoint: 18.0°C (64°F) [RH = 73%]
Pressure (altimeter): 30.12 inches Hg (1020.0 mb)
Winds: from the NNW (330 degrees) at 9 MPH (8 knots; 4.1 m/s)
Visibility: 6 or more miles (10+ km)
Ceiling: at least 12,000 feet AGL
Clouds: scattered clouds at 2600 feet AGL
Weather: no significant weather observed at this time

METAR text: GCLA 192130Z AUTO 36008KT CAVOK 23/18 Q1020
Conditions at: GCLA (LA PALMA AIRPORT, ES) observed 2130 UTC 19 September 2020
Temperature: 23.0°C (73°F)
Dewpoint: 18.0°C (64°F) [RH = 73%]
Pressure (altimeter): 30.12 inches Hg (1020.0 mb)
Winds: from the N (360 degrees) at 9 MPH (8 knots; 4.1 m/s)
Visibility: 6 or more miles (10+ km)
Ceiling: ceiling and visibility are OK
Clouds: unknown
Weather: no significant weather observed at this time

Forecast for: GCLA (LA PALMA AIRPORT, ES)
Text: TAF GCLA 192000Z 1921/2021 32006KT 9999 SCT025 TX28/2014Z TN21/2007Z
Forecast period: 2100 UTC 19 September 2020 to 0900 UTC 20 September 2020
Forecast type: FROM: standard forecast or significant change
Winds: from the NW (320 degrees) at 7 MPH (6 knots; 3.1 m/s)
Visibility: 6 or more miles (10+ km)
Ceiling: at least 12,000 feet AGL
Clouds: scattered clouds at 2500 feet AGL
Weather: no significant weather forecast for this period
Text: BECMG 2009/2011 02010KT
Forecast period: 0900 to 2100 UTC 20 September 2020
Forecast type: BECOMING: Conditions expected to become as follows by 1100 UTC 20 September 2020
Winds: from the NNE (20 degrees) at 12 MPH (10 knots; 5.1 m/s)
Visibility: 6 or more miles (10+ km)
Ceiling: at least 12,000 feet AGL
Clouds: scattered clouds at 2500 feet AGL
Weather: no significant weather forecast for this period

 MAPA DE AEROPUERTO

 INFORMACIÓN DE PISTA
Pista 01 Longitud 7218 ft Ancho 148 ft
Elevación 103 ft Umbral desplazado 0 ft Rumbo de pista 359
Pista 19 Longitud 7218 ft Ancho 148 ft
Elevación 65 ft Umbral desplazado 0 ft Rumbo de pista 179

 FRECUANCIAS DEL AEROPUERTO
Tipo APP Nombre CANARIAS A Frecuencia 126.1 MHZ
Tipo ATIS Nombre INFO Frecuencia 118.6 MHZ
Tipo GND Nombre GND Frecuencia 121.8 MHZ
Tipo TWR Nombre TWR Frecuencia 118.9 MHZ

 RADIO AYUDAS DEL AEROPUERTO
Tipo DME Nombre La Palma Frecuencia 112400 KHZ
Tipo NDB Nombre La Palma Frecuencia 389 KHZ



Powered by Virtual Airlines Manager [v2.6.2]